Time;durP1;ratioP1;P1;durP2;ratioP2;P2;SDS_P1;SDS_P2;PMS_P1;PMS_P2;Temp;Humidity;BMP_temperature;BMP_pressure;BME280_temperature;BME280_humidity;BME280_pressure;Samples;Min_cycle;Max_cycle;Signal;HPM_P1;HPM_P2
2024/03/23 22:08:54;;;;;;;17.60;7.05;;;;;;;;;;5015070;28;20432;-65
2024/03/23 22:11:20;;;;;;;15.23;6.35;;;;;;;;;;5014049;28;20194;-68
2024/03/23 22:13:47;;;;;;;16.90;6.45;;;;;;;;;;5012246;28;20125;-67
2024/03/23 22:16:13;;;;;;;;;;;;;;;;;;5018111;28;20040;-68
2024/03/23 22:18:39;;;;;;;15.13;6.80;;;;;;;;;;5015843;28;20183;-68
2024/03/23 22:21:05;;;;;;;15.18;6.07;;;;;;;;;;5020129;28;20017;-67
2024/03/23 22:23:31;;;;;;;15.25;5.95;;;;;;;;;;5030343;28;20404;-67
2024/03/23 22:25:58;;;;;;;;;;;;;;;;;;5019524;28;20064;-67
2024/03/23 22:28:25;;;;;;;15.43;5.30;;;;;;;;;;5016920;28;19917;-67
2024/03/23 22:30:54;;;;;;;13.13;5.00;;;;;;;;;;5017349;28;20037;-66
2024/03/23 22:33:20;;;;;;;12.43;4.75;;;;;;;;;;5018149;28;20140;-67
2024/03/23 22:35:46;;;;;;;10.63;4.22;;;;;;;;;;5013906;28;20447;-67
2024/03/23 22:38:13;;;;;;;15.38;4.82;;;;;;;;;;5018337;28;20708;-67
2024/03/23 22:40:39;;;;;;;;;;;;;;;;;;5007137;28;20032;-67
2024/03/23 22:43:05;;;;;;;12.25;5.18;;;;;;;;;;5018419;28;20002;-69
2024/03/23 22:45:31;;;;;;;14.20;5.68;;;;;;;;;;5013343;28;20090;-66
2024/03/23 22:47:57;;;;;;;14.77;5.40;;;;;;;;;;5015646;28;20041;-66
2024/03/23 22:50:23;;;;;;;14.32;4.97;;;;;;;;;;5005301;28;20059;-67
2024/03/23 22:52:49;;;;;;;;;;;;;;;;;;5009221;28;20033;-67
2024/03/23 22:55:15;;;;;;;9.38;3.70;;;;;;;;;;5017162;28;19919;-67
2024/03/23 22:57:41;;;;;;;10.27;3.83;;;;;;;;;;5010591;28;20203;-67
2024/03/23 23:00:09;;;;;;;11.55;3.70;;;;;;;;;;5016477;28;20033;-69
2024/03/23 23:02:35;;;;;;;11.35;3.40;;;;;;;;;;4997529;28;20029;-66
2024/03/23 23:05:02;;;;;;;10.90;3.53;;;;;;;;;;5015246;28;20018;-65
2024/03/23 23:07:28;;;;;;;10.15;3.63;;;;;;;;;;5013183;28;20037;-68
2024/03/23 23:09:54;;;;;;;12.13;3.92;;;;;;;;;;5015425;28;20036;-69
2024/03/23 23:12:20;;;;;;;10.38;3.72;;;;;;;;;;5021493;28;20966;-69
2024/03/23 23:14:46;;;;;;;;;;;;;;;;;;5010563;28;20059;-67
2024/03/23 23:17:13;;;;;;;10.93;3.38;;;;;;;;;;5015822;28;19917;-67
2024/03/23 23:19:40;;;;;;;10.75;3.88;;;;;;;;;;5000489;28;20048;-67
2024/03/23 23:22:05;;;;;;;;;;;;;;;;;;5004522;28;20037;-67
2024/03/23 23:24:40;;;;;;;9.57;3.67;;;;;;;;;;4992915;28;19965;-67
2024/03/23 23:27:06;;;;;;;10.68;3.78;;;;;;;;;;5001329;28;20041;-67
2024/03/23 23:29:33;;;;;;;9.93;3.15;;;;;;;;;;4998813;28;20025;-67
2024/03/23 23:31:59;;;;;;;;;;;;;;;;;;5005480;28;21247;-67
2024/03/23 23:34:25;;;;;;;12.50;3.83;;;;;;;;;;4999927;28;19916;-67
2024/03/23 23:36:51;;;;;;;;;;;;;;;;;;5004181;28;20029;-67
2024/03/23 23:39:17;;;;;;;9.48;3.00;;;;;;;;;;5002634;28;19917;-68
2024/03/23 23:41:43;;;;;;;;;;;;;;;;;;5004488;28;20072;-67
2024/03/23 23:44:09;;;;;;;10.52;3.28;;;;;;;;;;5003228;28;20505;-66
2024/03/23 23:46:35;;;;;;;;;;;;;;;;;;5000564;28;20079;-67
2024/03/23 23:49:01;;;;;;;10.23;2.97;;;;;;;;;;5000281;28;19970;-70
2024/03/23 23:51:28;;;;;;;9.98;2.92;;;;;;;;;;4997215;28;20179;-67
2024/03/23 23:53:54;;;;;;;8.07;2.72;;;;;;;;;;5000804;28;21091;-67
2024/03/23 23:56:20;;;;;;;;;;;;;;;;;;5002621;28;20028;-67
2024/03/23 23:58:46;;;;;;;12.38;4.30;;;;;;;;;;4996523;28;19913;-67
